Time;durP1;ratioP1;P1;durP2;ratioP2;P2;SDS_P1;SDS_P2;PMS_P1;PMS_P2;Temp;Humidity;BMP_temperature;BMP_pressure;BME280_temperature;BME280_humidity;BME280_pressure;Samples;Min_cycle;Max_cycle;Signal;HPM_P1;HPM_P2
2021/04/06 08:23:40;;;;;;;;;;;;;;;14.03;38.12;100706.19;5024002;28;82753;-81
2021/04/06 08:26:30;;;;;;;;;;;;;;;12.63;42.38;100696.09;5020727;28;12089;-81
2021/04/06 08:29:27;;;;;;;;;;;;;;;13.85;40.61;100686.41;5022115;28;723;-81
2021/04/06 08:32:13;;;;;;;;;;;;;;;15.00;36.83;100694.78;5022643;28;867;-82
2021/04/06 08:34:58;;;;;;;;;;;;;;;18.20;31.45;100701.69;5020765;28;12050;-82
2021/04/06 08:37:38;;;;;;;;;;;;;;;19.89;29.04;100703.28;5019242;28;1911;-81
2021/04/06 08:40:06;;;;;;;;;;;;;;;17.95;30.97;100709.91;5019940;28;517;-81
2021/04/06 08:42:33;;;;;;;;;;;;;;;12.87;38.11;100714.50;5018369;28;753;-81
2021/04/06 08:45:00;;;;;;;;;;;;;;;8.96;48.46;100722.41;5018079;28;1200;-81
2021/04/06 08:47:40;;;;;;;;;;;;;;;6.92;55.04;100716.53;5018349;28;765;-81
2021/04/06 08:50:16;;;;;;;;;;;;;;;5.90;59.82;100724.09;5020985;28;750;-81
2021/04/06 08:52:43;;;;;;;;;;;;;;;5.55;61.61;100723.56;5022071;28;611;-81
2021/04/06 08:55:12;;;;;;;;;;;;;;;5.05;62.47;100719.50;5023245;28;1185;-80
2021/04/06 08:57:39;;;;;;;;;;;;;;;5.39;63.27;100710.34;5023457;28;1875;-81
2021/04/06 09:00:13;;;;;;;;;;;;;;;6.40;60.89;100725.31;5023917;28;792;-81
2021/04/06 09:02:40;;;;;;;;;;;;;;;7.17;56.16;100716.56;5023160;28;807;-81
2021/04/06 09:05:07;;;;;;;;;;;;;;;9.31;51.03;100722.38;5021840;28;1257;-81
2021/04/06 09:07:38;;;;;;;;;;;;;;;13.58;40.31;100724.97;5021851;28;815;-81
2021/04/06 09:10:12;;;;;;;;;;;;;;;13.90;38.91;100724.59;5021311;28;703;-81
2021/04/06 09:12:41;;;;;;;;;;;;;;;12.18;41.80;100719.06;5022308;28;683;-81
2021/04/06 09:15:10;;;;;;;;;;;;;;;11.51;44.56;100724.97;5022076;28;1162;-81
2021/04/06 09:17:38;;;;;;;;;;;;;;;12.06;43.12;100721.00;5021241;28;1898;-81
2021/04/06 09:20:10;;;;;;;;;;;;;;;13.27;40.59;100715.38;5022039;28;682;-82
2021/04/06 09:22:37;;;;;;;;;;;;;;;14.43;37.84;100710.38;5021746;28;906;-82
2021/04/06 09:25:22;;;;;;;;;;;;;;;15.74;34.46;100707.88;5021137;28;1166;-81
2021/04/06 09:28:10;;;;;;;;;;;;;;;15.15;35.14;100693.25;5020230;28;784;-82
2021/04/06 09:30:44;;;;;;;;;;;;;;;14.57;36.02;100695.56;5021314;28;1214;-82
2021/04/06 09:33:13;;;;;;;;;;;;;;;13.55;37.59;100697.44;5022623;28;522;-81
2021/04/06 09:35:39;;;;;;;;;;;;;;;13.77;37.50;100691.72;5021820;28;1186;-81
2021/04/06 09:38:05;;;;;;;;;;;;;;;12.46;38.97;100693.22;5021181;28;1953;-81
2021/04/06 09:40:38;;;;;;;;;;;;;;;11.43;41.67;100688.88;5021590;28;824;-84
2021/04/06 09:43:04;;;;;;;;;;;;;;;12.21;41.41;100695.47;5020035;28;903;-79
2021/04/06 09:45:31;;;;;;;;;;;;;;;13.96;36.68;100693.47;5020551;28;1185;-80
2021/04/06 09:47:57;;;;;;;;;;;;;;;15.47;35.69;100680.97;5023123;28;893;-80
2021/04/06 09:50:26;;;;;;;;;;;;;;;16.66;32.12;100687.25;5025493;28;1112;-82
2021/04/06 09:52:57;;;;;;;;;;;;;;;19.37;29.74;100695.13;5024451;28;905;-82
2021/04/06 09:55:25;;;;;;;;;;;;;;;20.44;27.91;100687.47;5024204;28;1217;-82
2021/04/06 09:58:00;;;;;;;;;;;;;;;20.34;27.01;100688.59;5021707;28;1910;-82
2021/04/06 10:00:29;;;;;;;;;;;;;;;19.39;27.72;100671.31;5024127;28;503;-82
2021/04/06 10:03:06;;;;;;;;;;;;;;;17.98;28.76;100668.00;5023918;28;885;-81
2021/04/06 10:05:33;;;;;;;;;;;;;;;18.94;29.90;100669.50;5023175;28;1266;-81
2021/04/06 10:08:00;;;;;;;;;;;;;;;20.26;27.63;100658.75;5022688;28;792;-81
2021/04/06 10:10:29;;;;;;;;;;;;;;;21.81;25.49;100658.91;5022672;28;807;-82
2021/04/06 10:12:58;;;;;;;;;;;;;;;20.74;26.56;100660.97;5022162;28;789;-81
2021/04/06 10:15:27;;;;;;;;;;;;;;;20.16;27.06;100655.50;5022337;28;1173;-81
2021/04/06 10:17:54;;;;;;;;;;;;;;;20.10;27.26;100649.94;5021632;28;1890;-82
2021/04/06 10:20:34;;;;;;;;;;;;;;;20.94;25.24;100663.91;5022444;28;809;-82
2021/04/06 10:23:00;;;;;;;;;;;;;;;20.70;25.84;100656.97;5023172;28;593;-82
2021/04/06 10:25:35;;;;;;;;;;;;;;;19.63;26.76;100656.63;5022381;28;1161;-81
2021/04/06 10:28:04;;;;;;;;;;;;;;;18.52;27.31;100665.34;5022287;28;607;-81
2021/04/06 10:30:39;;;;;;;;;;;;;;;16.86;28.80;100668.84;5022689;28;903;-80
2021/04/06 10:33:14;;;;;;;;;;;;;;;11.94;37.34;100650.38;5022713;28;816;-81
2021/04/06 10:35:46;;;;;;;;;;;;;;;9.52;44.47;100662.75;5023566;28;1200;-81
2021/04/06 10:38:20;;;;;;;;;;;;;;;7.80;52.80;100681.97;5024589;28;1933;-80
2021/04/06 10:40:47;;;;;;;;;;;;;;;6.05;59.55;100679.63;5025528;28;535;-80
2021/04/06 10:43:18;;;;;;;;;;;;;;;4.67;64.75;100687.22;5025214;28;894;-80
2021/04/06 10:45:51;;;;;;;;;;;;;;;3.90;68.37;100680.09;5025819;28;1552;-80
2021/04/06 10:48:23;;;;;;;;;;;;;;;3.48;70.45;100658.59;5025259;28;839;-79
2021/04/06 10:50:53;;;;;;;;;;;;;;;4.12;70.18;100637.28;5025532;28;807;-79
2021/04/06 10:53:30;;;;;;;;;;;;;;;6.08;64.50;100634.16;5025498;28;617;-79
2021/04/06 10:56:10;;;;;;;;;;;;;;;8.82;51.33;100634.31;5022323;28;905;-79
2021/04/06 10:58:59;;;;;;;;;;;;;;;10.34;49.65;100629.31;5023904;28;1946;-80
2021/04/06 11:01:43;;;;;;;;;;;;;;;11.29;45.91;100622.06;5024005;28;1116;-80
2021/04/06 11:04:11;;;;;;;;;;;;;;;13.13;41.62;100627.75;5024883;28;1193;-80
2021/04/06 11:06:39;;;;;;;;;;;;;;;15.96;36.21;100622.59;5024298;28;877;-80
2021/04/06 11:09:18;;;;;;;;;;;;;;;18.05;31.68;100626.41;5022808;28;767;-80
2021/04/06 11:11:46;;;;;;;;;;;;;;;19.92;29.55;100618.53;5021874;28;839;-81
2021/04/06 11:14:15;;;;;;;;;;;;;;;18.36;29.09;100614.69;5021381;28;1198;-80
2021/04/06 11:16:42;;;;;;;;;;;;;;;19.58;28.67;100626.44;5021489;28;910;-80
2021/04/06 11:19:17;;;;;;;;;;;;;;;21.47;25.77;100621.56;5020857;28;1949;-81
2021/04/06 11:21:48;;;;;;;;;;;;;;;22.26;25.55;100618.41;5021555;28;563;-81
2021/04/06 11:24:16;;;;;;;;;;;;;;;22.53;23.90;100611.97;5021864;28;1290;-81
2021/04/06 11:26:42;;;;;;;;;;;;;;;22.54;24.13;100610.91;5021333;28;520;-81
2021/04/06 11:29:12;;;;;;;;;;;;;;;22.26;24.97;100613.78;5021348;28;807;-81
2021/04/06 11:31:40;;;;;;;;;;;;;;;17.21;29.70;100610.75;5021574;28;879;-81
2021/04/06 11:34:08;;;;;;;;;;;;;;;12.77;38.37;100638.28;5021731;28;1206;-81
2021/04/06 11:36:35;;;;;;;;;;;;;;;10.54;45.08;100624.97;5023627;28;828;-81
2021/04/06 11:39:07;;;;;;;;;;;;;;;9.81;48.34;100612.22;5024654;28;1875;-80
2021/04/06 11:41:34;;;;;;;;;;;;;;;12.28;45.35;100607.00;5024840;28;638;-80
2021/04/06 11:44:00;;;;;;;;;;;;;;;13.51;41.41;100594.50;5025096;28;1200;-80
2021/04/06 11:46:27;;;;;;;;;;;;;;;14.81;38.09;100592.34;5024689;28;824;-80
2021/04/06 11:48:53;;;;;;;;;;;;;;;15.50;35.22;100584.16;5023059;28;867;-80
2021/04/06 11:51:19;;;;;;;;;;;;;;;15.48;33.13;100574.53;5022191;28;727;-80
2021/04/06 11:53:45;;;;;;;;;;;;;;;16.75;33.05;100583.34;5022596;28;1266;-80
2021/04/06 11:56:11;;;;;;;;;;;;;;;19.00;30.22;100577.19;5022047;28;919;-80
2021/04/06 11:58:37;;;;;;;;;;;;;;;18.39;29.11;100573.63;5021328;28;1871;-81
2021/04/06 12:01:04;;;;;;;;;;;;;;;19.40;28.28;100566.91;5021096;28;856;-81
2021/04/06 12:03:30;;;;;;;;;;;;;;;20.10;27.62;100568.25;5018406;28;1292;-81
2021/04/06 12:05:56;;;;;;;;;;;;;;;19.70;29.28;100559.63;5022238;28;836;-81
2021/04/06 12:08:22;;;;;;;;;;;;;;;17.29;31.20;100553.75;5021450;28;872;-81
2021/04/06 12:10:48;;;;;;;;;;;;;;;18.99;28.84;100551.03;5020067;28;1319;-81
2021/04/06 12:13:15;;;;;;;;;;;;;;;19.94;26.78;100555.72;5021238;28;879;-81
2021/04/06 12:15:41;;;;;;;;;;;;;;;17.21;31.16;100537.56;5021916;28;1158;-83
2021/04/06 12:18:07;;;;;;;;;;;;;;;18.42;29.70;100531.66;5023116;28;1888;-83
2021/04/06 12:20:33;;;;;;;;;;;;;;;21.45;24.98;100536.31;5024189;28;804;-83
2021/04/06 12:23:00;;;;;;;;;;;;;;;20.63;25.18;100542.41;5023472;28;840;-83
2021/04/06 12:25:26;;;;;;;;;;;;;;;17.17;28.53;100531.59;5021818;28;1208;-83
2021/04/06 12:27:52;;;;;;;;;;;;;;;19.63;27.86;100532.31;5021507;28;850;-83
2021/04/06 12:30:20;;;;;;;;;;;;;;;20.12;26.91;100530.78;5024326;28;718;-83
2021/04/06 12:32:46;;;;;;;;;;;;;;;20.86;25.44;100534.03;5023315;28;817;-83
2021/04/06 12:35:12;;;;;;;;;;;;;;;18.22;30.02;100539.44;5022891;28;1268;-83
2021/04/06 12:37:38;;;;;;;;;;;;;;;16.83;30.89;100539.16;5023056;28;1926;-83
2021/04/06 12:40:09;;;;;;;;;;;;;;;14.81;34.58;100549.97;5022997;28;857;-83
2021/04/06 12:42:37;;;;;;;;;;;;;;;12.29;40.13;100544.13;5025860;28;950;-83
2021/04/06 12:45:11;;;;;;;;;;;;;;;10.30;46.27;100536.69;5025452;28;1275;-82
2021/04/06 12:47:37;;;;;;;;;;;;;;;9.02;51.84;100548.00;5025545;28;1953;-82
2021/04/06 12:50:03;;;;;;;;;;;;;;;8.14;53.35;100549.47;5027134;28;849;-82
2021/04/06 12:52:29;;;;;;;;;;;;;;;7.94;54.09;100542.94;5026490;28;918;-82
2021/04/06 12:54:55;;;;;;;;;;;;;;;8.61;50.98;100540.53;5025880;28;1205;-81
2021/04/06 12:57:23;;;;;;;;;;;;;;;9.95;49.39;100535.13;5025425;28;878;-82
2021/04/06 12:59:51;;;;;;;;;;;;;;;13.44;40.16;100531.41;5024774;28;757;-82
2021/04/06 13:02:18;;;;;;;;;;;;;;;14.71;35.85;100534.88;5025383;28;804;-82
2021/04/06 13:04:43;;;;;;;;;;;;;;;17.45;33.46;100532.03;5024689;28;1165;-82
2021/04/06 13:07:09;;;;;;;;;;;;;;;18.42;29.25;100529.78;5022971;28;814;-83
2021/04/06 13:09:35;;;;;;;;;;;;;;;14.53;33.03;100537.63;5021897;28;1899;-83
2021/04/06 13:12:01;;;;;;;;;;;;;;;14.50;34.46;100554.97;5023715;28;840;-83
2021/04/06 13:14:27;;;;;;;;;;;;;;;11.50;41.18;100587.09;5022795;28;1283;-82
2021/04/06 13:16:53;;;;;;;;;;;;;;;8.41;51.24;100614.25;5024025;28;832;-83
2021/04/06 13:19:19;;;;;;;;;;;;;;;6.75;56.54;100607.50;5025358;28;832;-82
2021/04/06 13:21:46;;;;;;;;;;;;;;;5.19;62.45;100615.81;5027420;28;801;-82
2021/04/06 13:24:13;;;;;;;;;;;;;;;4.28;67.20;100614.22;5027344;28;1208;-82
2021/04/06 13:26:39;;;;;;;;;;;;;;;3.81;69.01;100624.91;5030284;28;541;-82
2021/04/06 13:29:05;;;;;;;;;;;;;;;3.57;71.27;100619.19;5029754;28;1883;-82
2021/04/06 13:31:31;;;;;;;;;;;;;;;3.69;71.02;100607.03;5030601;28;804;-82
2021/04/06 13:33:57;;;;;;;;;;;;;;;3.94;70.70;100606.50;5028843;28;1288;-83
2021/04/06 13:36:24;;;;;;;;;;;;;;;4.54;69.55;100602.09;5029829;28;745;-82
2021/04/06 13:38:50;;;;;;;;;;;;;;;5.06;67.77;100598.09;5029227;28;816;-82
2021/04/06 13:41:16;;;;;;;;;;;;;;;5.66;65.02;100593.38;5029536;28;902;-81
2021/04/06 13:43:42;;;;;;;;;;;;;;;6.04;62.76;100598.91;5028852;28;1254;-81
2021/04/06 13:46:08;;;;;;;;;;;;;;;6.25;61.04;100593.13;5029244;28;725;-81
2021/04/06 13:48:34;;;;;;;;;;;;;;;6.01;60.36;100595.59;5026753;28;1870;-82
2021/04/06 13:51:00;;;;;;;;;;;;;;;5.92;60.66;100594.41;5029165;28;922;-82
2021/04/06 13:53:28;;;;;;;;;;;;;;;5.97;60.36;100597.59;5027983;28;1189;-82
2021/04/06 13:55:54;;;;;;;;;;;;;;;6.04;60.20;100598.06;5029992;28;824;-82
2021/04/06 13:58:20;;;;;;;;;;;;;;;6.26;58.64;100594.81;5027436;28;853;-82
2021/04/06 14:00:48;;;;;;;;;;;;;;;7.26;53.91;100596.84;5026611;28;1037;-82
2021/04/06 14:03:14;;;;;;;;;;;;;;;8.89;50.99;100595.44;5030505;28;819;-82
2021/04/06 14:05:41;;;;;;;;;;;;;;;9.66;47.34;100593.75;5028209;28;1176;-82
2021/04/06 14:08:07;;;;;;;;;;;;;;;9.83;46.39;100591.50;5028564;28;1955;-82
2021/04/06 14:10:35;;;;;;;;;;;;;;;10.94;43.20;100590.25;5028910;28;825;-82
2021/04/06 14:13:02;;;;;;;;;;;;;;;11.45;42.23;100579.47;5028120;28;807;-82
2021/04/06 14:15:29;;;;;;;;;;;;;;;10.99;43.02;100590.69;5028019;28;1165;-83
2021/04/06 14:17:57;;;;;;;;;;;;;;;8.93;47.30;100583.50;5025773;28;682;-83
2021/04/06 14:20:27;;;;;;;;;;;;;;;8.65;48.09;100589.28;5025598;28;792;-83
2021/04/06 14:22:54;;;;;;;;;;;;;;;7.47;51.16;100596.19;5028327;28;559;-82
2021/04/06 14:25:23;;;;;;;;;;;;;;;6.00;56.71;100613.38;5027733;28;1190;-82
2021/04/06 14:27:52;;;;;;;;;;;;;;;4.87;61.76;100636.41;5026423;28;910;-83
2021/04/06 14:30:24;;;;;;;;;;;;;;;4.07;65.49;100635.84;5027827;28;1902;-82
2021/04/06 14:32:51;;;;;;;;;;;;;;;3.54;67.52;100637.91;5027855;28;560;-82
2021/04/06 14:35:17;;;;;;;;;;;;;;;3.25;68.44;100628.03;5024865;28;1217;-82
2021/04/06 14:37:44;;;;;;;;;;;;;;;3.12;69.29;100610.09;5026848;28;908;-82
2021/04/06 14:40:12;;;;;;;;;;;;;;;3.08;70.40;100605.06;5029508;28;829;-82
2021/04/06 14:42:38;;;;;;;;;;;;;;;2.97;71.70;100600.34;5029236;28;816;-82
2021/04/06 14:45:06;;;;;;;;;;;;;;;2.96;71.56;100580.09;5027675;28;1146;-82
2021/04/06 14:47:33;;;;;;;;;;;;;;;3.12;71.83;100583.59;5027108;28;903;-82
2021/04/06 14:49:59;;;;;;;;;;;;;;;3.31;69.80;100570.22;5026235;28;1882;-82
2021/04/06 14:52:25;;;;;;;;;;;;;;;3.55;68.81;100577.78;5027461;28;763;-82
2021/04/06 14:54:51;;;;;;;;;;;;;;;3.89;67.81;100576.72;5027719;28;1264;-82
2021/04/06 14:57:17;;;;;;;;;;;;;;;4.30;66.80;100577.81;5027438;28;902;-82
2021/04/06 14:59:43;;;;;;;;;;;;;;;4.72;63.68;100581.56;5028010;28;789;-82
2021/04/06 15:02:09;;;;;;;;;;;;;;;5.16;62.78;100576.16;5028085;28;895;-82
2021/04/06 15:04:37;;;;;;;;;;;;;;;5.21;62.01;100581.19;5028713;28;1260;-82
2021/04/06 15:07:03;;;;;;;;;;;;;;;5.39;59.08;100579.16;5028753;28;816;-82
2021/04/06 15:09:29;;;;;;;;;;;;;;;5.65;59.83;100578.34;5028757;28;1883;-82
2021/04/06 15:11:57;;;;;;;;;;;;;;;6.14;57.67;100574.34;5028963;28;856;-82
2021/04/06 15:14:26;;;;;;;;;;;;;;;6.47;57.57;100571.22;5027514;28;1264;-82
2021/04/06 15:16:53;;;;;;;;;;;;;;;6.54;54.27;100572.50;5025609;28;780;-82
2021/04/06 15:19:26;;;;;;;;;;;;;;;6.68;53.92;100571.56;5028117;28;769;-82
2021/04/06 15:21:56;;;;;;;;;;;;;;;7.24;53.40;100569.41;5027216;28;801;-82
2021/04/06 15:24:42;;;;;;;;;;;;;;;7.74;51.25;100571.13;5027918;28;1252;-82
2021/04/06 15:27:09;;;;;;;;;;;;;;;8.34;49.80;100563.06;5026846;28;1114;-82
2021/04/06 15:29:35;;;;;;;;;;;;;;;8.61;48.23;100561.94;5025413;28;1898;-82
2021/04/06 15:32:03;;;;;;;;;;;;;;;8.53;48.13;100554.50;5027487;28;878;-82
2021/04/06 15:34:30;;;;;;;;;;;;;;;8.54;48.34;100550.84;5026753;28;1188;-82
2021/04/06 15:36:56;;;;;;;;;;;;;;;8.74;48.18;100543.97;5025421;28;822;-82
2021/04/06 15:39:30;;;;;;;;;;;;;;;8.95;47.78;100532.56;5026915;28;840;-83
2021/04/06 15:41:58;;;;;;;;;;;;;;;7.90;48.37;100536.13;5026686;28;669;-82
2021/04/06 15:44:24;;;;;;;;;;;;;;;6.89;51.23;100536.28;5026547;28;1259;-82
2021/04/06 15:46:51;;;;;;;;;;;;;;;6.18;53.19;100536.72;5027170;28;909;-82
2021/04/06 15:49:20;;;;;;;;;;;;;;;5.73;55.28;100541.47;5027595;28;1926;-82
2021/04/06 15:51:52;;;;;;;;;;;;;;;5.19;58.04;100544.03;5027458;28;872;-82
2021/04/06 15:54:19;;;;;;;;;;;;;;;4.86;59.56;100546.16;5042074;28;1239;-82
2021/04/06 15:56:48;;;;;;;;;;;;;;;4.68;63.09;100548.13;5028447;28;936;-82
2021/04/06 15:59:14;;;;;;;;;;;;;;;4.68;62.08;100539.31;5027215;28;905;-82
2021/04/06 16:01:40;;;;;;;;;;;;;;;4.66;61.95;100541.19;5028056;28;837;-82
2021/04/06 16:04:06;;;;;;;;;;;;;;;4.60;64.19;100553.03;5026262;28;1205;-82
2021/04/06 16:06:33;;;;;;;;;;;;;;;5.00;63.40;100540.81;5027383;28;764;-82
2021/04/06 16:08:59;;;;;;;;;;;;;;;5.00;63.87;100553.25;5026928;28;1867;-82
2021/04/06 16:11:28;;;;;;;;;;;;;;;5.19;63.78;100559.13;5042829;28;908;-81
2021/04/06 16:13:55;;;;;;;;;;;;;;;5.62;61.68;100554.63;5028611;28;1187;-82
2021/04/06 16:16:21;;;;;;;;;;;;;;;5.76;60.18;100545.72;5028757;28;801;-82
2021/04/06 16:18:50;;;;;;;;;;;;;;;5.92;57.71;100559.78;5024202;28;883;-82
2021/04/06 16:21:17;;;;;;;;;;;;;;;5.78;57.73;100564.25;5026561;28;935;-82
2021/04/06 16:23:45;;;;;;;;;;;;;;;5.61;59.69;100576.00;5027041;28;1273;-82
2021/04/06 16:26:11;;;;;;;;;;;;;;;5.25;60.94;100589.81;5026351;28;812;-82
2021/04/06 16:28:38;;;;;;;;;;;;;;;4.23;62.53;100597.72;5026883;28;1879;-82
2021/04/06 16:31:04;;;;;;;;;;;;;;;3.68;64.19;100587.59;5026295;28;829;-82
2021/04/06 16:33:33;;;;;;;;;;;;;;;3.60;65.38;100605.72;5027170;28;1187;-82
2021/04/06 16:36:01;;;;;;;;;;;;;;;3.49;65.90;100612.56;5027354;28;833;-82
2021/04/06 16:38:29;;;;;;;;;;;;;;;3.54;66.95;100608.75;5027667;28;864;-82
2021/04/06 16:40:59;;;;;;;;;;;;;;;3.41;67.64;100599.72;5027615;28;886;-82
2021/04/06 16:43:26;;;;;;;;;;;;;;;3.21;69.54;100613.22;5042878;28;1253;-82
2021/04/06 16:45:53;;;;;;;;;;;;;;;2.84;71.65;100623.94;5028169;28;840;-82
2021/04/06 16:48:20;;;;;;;;;;;;;;;2.52;73.44;100625.63;5025685;28;846;-82
2021/04/06 16:50:47;;;;;;;;;;;;;;;2.32;74.94;100636.34;5025226;28;1940;-82
2021/04/06 16:53:17;;;;;;;;;;;;;;;2.09;76.59;100631.34;5027927;28;816;-82
2021/04/06 16:55:43;;;;;;;;;;;;;;;1.79;77.80;100631.88;5026938;28;1202;-83
2021/04/06 16:58:10;;;;;;;;;;;;;;;1.51;78.91;100620.91;5027096;28;899;-82
2021/04/06 17:00:36;;;;;;;;;;;;;;;1.35;80.41;100616.31;5026942;28;893;-82
2021/04/06 17:03:05;;;;;;;;;;;;;;;1.21;81.17;100613.47;5027252;28;878;-81
2021/04/06 17:05:32;;;;;;;;;;;;;;;1.16;81.16;100612.78;5028196;28;1170;-82
2021/04/06 17:07:58;;;;;;;;;;;;;;;1.20;80.91;100613.53;5026468;28;744;-81
2021/04/06 17:10:24;;;;;;;;;;;;;;;1.20;81.33;100609.09;5025715;28;1871;-82
2021/04/06 17:12:50;;;;;;;;;;;;;;;1.20;80.18;100611.75;5026252;28;913;-83
2021/04/06 17:15:18;;;;;;;;;;;;;;;1.20;80.75;100611.75;5027974;28;1302;-82
2021/04/06 17:17:47;;;;;;;;;;;;;;;1.13;80.80;100607.66;5026645;28;896;-81
2021/04/06 17:20:15;;;;;;;;;;;;;;;1.06;81.67;100604.44;5025642;28;929;-83
2021/04/06 17:22:42;;;;;;;;;;;;;;;1.07;81.40;100608.78;5027944;28;815;-82
2021/04/06 17:25:11;;;;;;;;;;;;;;;0.96;82.70;100605.75;5042062;28;1209;-82
2021/04/06 17:27:38;;;;;;;;;;;;;;;0.93;82.94;100613.84;5028000;28;710;-82
2021/04/06 17:30:08;;;;;;;;;;;;;;;0.88;83.26;100613.16;5027368;28;1883;-82
2021/04/06 17:32:36;;;;;;;;;;;;;;;0.85;83.95;100611.53;5028244;28;829;-81
2021/04/06 17:35:13;;;;;;;;;;;;;;;0.82;84.09;100613.47;5027106;28;1249;-81
2021/04/06 17:37:43;;;;;;;;;;;;;;;0.83;83.87;100610.75;5025725;28;804;-82
2021/04/06 17:40:11;;;;;;;;;;;;;;;0.81;84.18;100617.88;5027221;28;940;-81
2021/04/06 17:42:37;;;;;;;;;;;;;;;0.84;83.65;100616.88;5025554;28;949;-81
2021/04/06 17:45:06;;;;;;;;;;;;;;;0.80;83.72;100616.16;5027417;28;1220;-82
2021/04/06 17:47:32;;;;;;;;;;;;;;;0.74;84.25;100620.84;5026423;28;805;-82
2021/04/06 17:49:59;;;;;;;;;;;;;;;0.65;84.35;100627.38;5027231;28;1965;-81
2021/04/06 17:52:25;;;;;;;;;;;;;;;0.55;84.32;100612.88;5028274;28;883;-81
2021/04/06 17:54:54;;;;;;;;;;;;;;;0.42;84.39;100623.09;5024066;28;1280;-81
2021/04/06 17:57:20;;;;;;;;;;;;;;;0.33;84.83;100620.84;5025702;28;965;-81
2021/04/06 17:59:46;;;;;;;;;;;;;;;0.28;84.75;100630.72;5025816;28;886;-81
2021/04/06 18:02:12;;;;;;;;;;;;;;;0.22;84.99;100634.47;5027587;28;821;-81
2021/04/06 18:04:38;;;;;;;;;;;;;;;0.15;85.39;100634.78;5027029;28;1265;-82
2021/04/06 18:07:08;;;;;;;;;;;;;;;0.09;85.47;100641.16;5027174;28;703;-82
2021/04/06 18:09:35;;;;;;;;;;;;;;;0.06;86.20;100636.00;5030767;28;1936;-82
2021/04/06 18:12:01;;;;;;;;;;;;;;;0.02;85.49;100637.06;5030953;28;793;-81
2021/04/06 18:14:28;;;;;;;;;;;;;;;-0.01;85.92;100632.75;5030987;28;1189;-81
2021/04/06 18:16:54;;;;;;;;;;;;;;;0.01;85.96;100637.13;5028289;28;850;-81
2021/04/06 18:19:20;;;;;;;;;;;;;;;0.03;86.23;100635.28;5029761;28;844;-82
2021/04/06 18:21:52;;;;;;;;;;;;;;;0.03;86.25;100640.56;5028874;28;788;-84
2021/04/06 18:24:20;;;;;;;;;;;;;;;0.03;85.40;100643.19;5030667;28;1274;-81
2021/04/06 18:26:46;;;;;;;;;;;;;;;0.04;85.08;100651.03;5030569;28;610;-81
2021/04/06 18:29:13;;;;;;;;;;;;;;;0.06;85.27;100656.25;5030278;28;1965;-82
2021/04/06 18:31:39;;;;;;;;;;;;;;;0.06;84.82;100670.28;5031205;28;817;-82
2021/04/06 18:34:07;;;;;;;;;;;;;;;0.06;84.90;100667.66;5030745;28;1196;-82
2021/04/06 18:36:33;;;;;;;;;;;;;;;0.07;84.74;100679.91;5030450;28;819;-81
2021/04/06 18:38:59;;;;;;;;;;;;;;;0.08;83.99;100670.22;5030510;28;871;-82
2021/04/06 18:41:26;;;;;;;;;;;;;;;0.07;84.48;100687.81;5030151;28;842;-82
2021/04/06 18:43:52;;;;;;;;;;;;;;;0.09;84.11;100695.66;5030732;28;1165;-81
2021/04/06 18:46:18;;;;;;;;;;;;;;;0.18;84.48;100709.34;5028009;28;912;-81
2021/04/06 18:48:44;;;;;;;;;;;;;;;0.28;84.45;100705.41;5028044;28;905;-82
2021/04/06 18:51:11;;;;;;;;;;;;;;;0.34;84.61;100706.97;5028560;28;1875;-82
2021/04/06 18:53:37;;;;;;;;;;;;;;;0.30;85.66;100713.31;5028277;28;1208;-82
2021/04/06 18:56:04;;;;;;;;;;;;;;;0.27;85.61;100710.78;5026897;28;837;-82
2021/04/06 18:58:30;;;;;;;;;;;;;;;0.21;86.30;100706.63;5026965;28;809;-82
2021/04/06 19:00:57;;;;;;;;;;;;;;;0.17;87.12;100712.06;5026676;28;898;-81
2021/04/06 19:03:23;;;;;;;;;;;;;;;0.14;87.23;100713.03;5025889;28;898;-81
2021/04/06 19:05:51;;;;;;;;;;;;;;;0.16;87.29;100718.25;5026250;28;986;-82
2021/04/06 19:08:19;;;;;;;;;;;;;;;0.16;87.30;100718.25;5027634;28;836;-82
2021/04/06 19:10:49;;;;;;;;;;;;;;;0.16;87.12;100711.19;5028514;28;1942;-81
2021/04/06 19:13:18;;;;;;;;;;;;;;;0.19;87.89;100716.34;5028670;28;607;-81
2021/04/06 19:15:47;;;;;;;;;;;;;;;0.19;88.13;100702.28;5026501;28;1297;-82
2021/04/06 19:18:16;;;;;;;;;;;;;;;0.15;88.51;100708.63;5026881;28;810;-81
2021/04/06 19:20:45;;;;;;;;;;;;;;;0.14;88.32;100694.59;5026761;28;902;-82
2021/04/06 19:23:13;;;;;;;;;;;;;;;0.11;88.42;100694.72;5027185;28;755;-82
2021/04/06 19:25:39;;;;;;;;;;;;;;;0.09;88.52;100699.16;5026201;28;1141;-82
2021/04/06 19:28:05;;;;;;;;;;;;;;;0.07;88.77;100702.78;5027368;28;913;-81
2021/04/06 19:30:32;;;;;;;;;;;;;;;0.08;88.87;100701.88;5026760;28;1879;-82
2021/04/06 19:33:01;;;;;;;;;;;;;;;0.07;88.58;100708.91;5026118;28;821;-81
2021/04/06 19:35:29;;;;;;;;;;;;;;;0.10;88.55;100718.47;5026937;28;1276;-82
2021/04/06 19:37:57;;;;;;;;;;;;;;;0.11;89.05;100707.03;5027000;28;921;-82
2021/04/06 19:40:25;;;;;;;;;;;;;;;0.09;87.97;100709.72;5027225;28;794;-81
2021/04/06 19:42:51;;;;;;;;;;;;;;;0.08;88.16;100709.78;5027367;28;903;-82
2021/04/06 19:45:20;;;;;;;;;;;;;;;0.06;88.25;100709.00;5026319;28;1185;-81
2021/04/06 19:47:47;;;;;;;;;;;;;;;0.02;88.57;100713.53;5025260;28;909;-81
2021/04/06 19:50:13;;;;;;;;;;;;;;;-0.03;88.59;100716.34;5027558;28;1969;-82
2021/04/06 19:52:41;;;;;;;;;;;;;;;-0.03;88.75;100711.06;5026391;28;844;-82
2021/04/06 19:55:10;;;;;;;;;;;;;;;-0.03;89.36;100710.19;5026431;28;1236;-82
2021/04/06 19:57:36;;;;;;;;;;;;;;;-0.06;88.75;100711.19;5025008;28;693;-82
2021/04/06 20:00:11;;;;;;;;;;;;;;;-0.06;88.47;100713.81;5024569;28;948;-81
2021/04/06 20:02:38;;;;;;;;;;;;;;;-0.05;88.67;100702.34;5025286;28;797;-81
2021/04/06 20:05:07;;;;;;;;;;;;;;;-0.05;88.85;100705.00;5027340;28;1176;-81
2021/04/06 20:07:33;;;;;;;;;;;;;;;-0.05;89.03;100710.28;5026817;28;800;-81
2021/04/06 20:10:00;;;;;;;;;;;;;;;-0.05;88.38;100717.31;5027175;28;1949;-81
2021/04/06 20:12:26;;;;;;;;;;;;;;;-0.04;88.56;100713.75;5027666;28;838;-82
2021/04/06 20:14:52;;;;;;;;;;;;;;;-0.05;87.58;100719.97;5042087;28;1298;-81
2021/04/06 20:17:18;;;;;;;;;;;;;;;-0.04;87.34;100724.31;5026645;28;801;-81
2021/04/06 20:19:44;;;;;;;;;;;;;;;-0.04;88.16;100721.66;5026162;28;817;-82
2021/04/06 20:22:10;;;;;;;;;;;;;;;-0.02;87.59;100717.19;5024422;28;831;-81
2021/04/06 20:24:37;;;;;;;;;;;;;;;-0.01;87.04;100716.25;5042392;28;1309;-82
2021/04/06 20:27:03;;;;;;;;;;;;;;;0.02;86.10;100718.81;5027108;28;574;-82
2021/04/06 20:29:29;;;;;;;;;;;;;;;0.03;86.52;100709.13;5026694;28;761;-82
2021/04/06 20:31:55;;;;;;;;;;;;;;;0.02;85.79;100712.69;5027622;28;1924;-81
2021/04/06 20:34:22;;;;;;;;;;;;;;;0.01;85.48;100711.81;5028068;28;1177;-83
2021/04/06 20:36:50;;;;;;;;;;;;;;;0.00;85.58;100715.38;5026025;28;929;-81
2021/04/06 20:39:17;;;;;;;;;;;;;;;0.01;85.89;100726.78;5027621;28;873;-81
2021/04/06 20:41:44;;;;;;;;;;;;;;;-0.01;85.56;100726.81;5026381;28;1000;-82
2021/04/06 20:44:10;;;;;;;;;;;;;;;0.01;85.62;100724.16;5027241;28;1243;-82
2021/04/06 20:46:36;;;;;;;;;;;;;;;0.04;86.39;100735.41;5027884;28;824;-82
2021/04/06 20:49:07;;;;;;;;;;;;;;;0.09;86.41;100743.13;5028254;28;904;-81
2021/04/06 20:51:34;;;;;;;;;;;;;;;0.12;85.98;100735.13;5026425;28;1932;-81
2021/04/06 20:54:00;;;;;;;;;;;;;;;0.17;85.72;100733.16;5023871;28;1278;-82
2021/04/06 20:56:26;;;;;;;;;;;;;;;0.22;85.31;100741.75;5028210;28;914;-82
2021/04/06 20:58:52;;;;;;;;;;;;;;;0.26;85.19;100741.56;5028588;28;974;-81
2021/04/06 21:01:18;;;;;;;;;;;;;;;0.27;85.29;100735.38;5026904;28;887;-82
2021/04/06 21:03:44;;;;;;;;;;;;;;;0.28;84.73;100738.84;5027853;28;1189;-82
2021/04/06 21:06:10;;;;;;;;;;;;;;;0.23;84.24;100733.78;5027245;28;916;-82
2021/04/06 21:08:37;;;;;;;;;;;;;;;0.21;84.17;100732.13;5026559;28;908;-82
2021/04/06 21:11:04;;;;;;;;;;;;;;;0.17;84.43;100741.06;5026540;28;1953;-82
2021/04/06 21:13:31;;;;;;;;;;;;;;;0.12;84.79;100740.41;5027523;28;1264;-81
2021/04/06 21:15:57;;;;;;;;;;;;;;;0.07;84.51;100734.44;5027207;28;845;-81
2021/04/06 21:18:24;;;;;;;;;;;;;;;0.03;84.61;100740.75;5025812;28;840;-81
2021/04/06 21:20:50;;;;;;;;;;;;;;;-0.06;85.24;100742.81;5027903;28;845;-81
2021/04/06 21:23:16;;;;;;;;;;;;;;;-0.10;85.75;100740.34;5042382;28;842;-81
2021/04/06 21:25:42;;;;;;;;;;;;;;;-0.15;86.01;100743.19;5027141;28;1292;-81
2021/04/06 21:28:08;;;;;;;;;;;;;;;-0.19;86.47;100748.63;5027182;28;757;-81